Air Resources Laboratory banner image
Air Resources Laboratory web site National Oceanic and Atmospheric Administration (NOAA)

fl metar


KAAF 132353Z AUTO 30009KT 10SM CLR 28/24 A2998 RMK AO2 SLP153 T02830239 10311
 20283 55000 $=
KAPF 132353Z 09008KT 10SM CLR 27/23 A3000 RMK AO2 SLP156 T02670228 10317 20267
 51006=
KBKV 132353Z 32004KT 10SM OVC100 29/23 A3001 RMK AO2 SLP161 T02890228 10333
 20289 53005=
KBOW 132355Z AUTO VRB05KT 10SM FEW047 FEW100 25/23 A3001 RMK AO2 LTG DSNT NE-S=
KCEW 132353Z AUTO 00000KT 10SM FEW001 SCT070 BKN120 26/24 A3000 RMK AO2 RAE2256
 TSE12 SLP156 P0001 60006 T02560239 10328 20256 50003=
KCRG 132353Z 06006KT 10SM FEW020 FEW120 27/23 A2999 RMK AO2 SLP156 60051
 T02670233 10278 20250 58002=
KCTY 132355Z AUTO 00000KT 10SM SCT075 SCT090 BKN120 25/24 A2999 RMK AO2
 T02530240 10321 20238 403210230 60018=
KDAB 132353Z 00000KT 10SM FEW030 SCT055 BKN070 OVC200 26/23 A3000 RMK AO2
 SLP159 CB DSNT NE 60000 T02610228 10333 20261 55002=
KDTS 132353Z VRB04KT 10SM SCT050 BKN070 30/24 A2998 RMK AO2 SLP151 T03000239
 10317 20300 55000=
KEGI 132356Z AUTO 10005KT 10SM SCT049 BKN065 26/23 A2999 RMK AO2 RAB2256E02
 SLP155 P0000 60000 T02570228 10314 20257 51004=
KEYW 132353Z 00000KT 10SM SCT030 30/23 A3001 RMK AO2 SLP160 T03000233 10311
 20289 53006=
KFLL 132353Z 28003KT 10SM FEW030CB SCT065 BKN120 BKN250 29/23 A2999 RMK AO2
 SLP156 CB W-NW MOV SE T02890228 10294 20261 53001 $=
KFMY 132353Z 06010KT 10SM -RA FEW020 BKN033 BKN075 27/23 A3000 RMK AO2 LTG DSNT
 N AND E RAB44 SLP159 P0000 60014 T02720228 10333 20261 53005=
KFPR 132353Z 00000KT 10SM BKN100 26/24 A3001 RMK AO2 LTG DSNT SE SLP160 60074
 T02560239 10350 20239 55006=
KFXE 132353Z AUTO 31007KT 10SM FEW049 FEW070 27/22 A3001 RMK AO2 SLP163 60002
 T02670217 10294 20256 53005 TSNO=
KGIF 132353Z AUTO 11003KT 10SM SCT043 25/22 A3001 RMK AO2 LTG DSNT N AND NE
 SLP161 60149 T02500222 10333 20233 53007=
KGNV 132353Z 36003KT 10SM SCT028 BKN037 OVC048 26/22 A3002 RMK AO2 SLP163 60000
 T02560222 10294 20244 53000=
KHRT 132356Z 26003KT 10SM FEW010 BKN250 28/23 A2998 RMK AO2A SLP154 T02830227
 10303 20281 55000 $=
KHST 132356Z 28003KT 8SM RA FEW003 BKN075 BKN100 26/23 A2999 RMK AO2A RAB36
 SLP159 P0008 60008 T02640234 10323 20263 50007=
KISM 132356Z 19008KT 10SM TS OVC050 27/23 A3001 RMK AO2 LTG DSNT W AND NW TSB42
 SLP162 6//// T02670233 10339 20267 53008 PNO $=
KJAX 132356Z 04007KT 10SM FEW022 SCT110 BKN250 26/23 A2999 RMK AO2 SLP154 CB
 DSNT SW 60026 T02560228 10289 20239 58001=
KLAL 132350Z 17004KT 10SM SCT065 28/22 A3001=
KLEE 132353Z 00000KT 10SM OVC095 27/21 A3000 RMK AO2 LTG DSNT SE AND S SLP159
 T02720211 10333 20272 53003=
KMAI 132353Z AUTO 30013G24KT 1/2SM +RA FG SCT028 BKN036 BKN120 24/23 A2998 RMK
 AO1 LTG DSNT SE RAB41 SLP150 6//// T02440233 10317 20244 53002 PNO $=
KMCF 132356Z AUTO 31005KT 10SM OVC140 29/22 A2996 RMK AO2 SLP148 T02900220
 10325 20290 53005 FZRANO $=
KMCO 132353Z 10008KT 10SM FEW035 FEW055 BKN090 OVC200 27/22 A3000 RMK AO2 LTG
 DSNT SW AND W SLP157 CB DSNT SW-W T02720222 10339 20267 53009 $=
KMIA 132353Z 27004KT 10SM SCT033 SCT130 BKN250 29/23 A3000 RMK AO2 SLP160 CB
 DSNT N 60001 T02890233 10317 20267 53003 $=
KMLB 132353Z 31003KT 10SM BKN041 BKN050 OVC100 26/23 A3000 RMK AO2 SLP159 60091
 T02610233 10289 20228 53001=
KMTH 132353Z AUTO 06003KT 10SM CLR 30/22 A2999 RMK AO2 SLP156 T03000222 10333
 20300 53004=
KNIP 132353Z 06005KT 10SM FEW040 SCT110 BKN250 26/24 A3000 RMK AO2 SLP153 T2
 SET 60059 T02610239 10272 20244 58003 $=
KNQX 132353Z 05004KT 10SM FEW025TCU BKN250 32/24 A3000 RMK AO2 SLP157 TCU OHD
 T2 SET T03170239 10339 20317 53005 $=
KNRB 132352Z AUTO 05012KT 10SM SCT120 27/24 A2999 RMK AO2 SLP156 60000
 T02670239 10278 20261 57003 $=
KOCF 132351Z AUTO 09003KT 3SM -RA BR FEW017 BKN027 OVC035 24/23 A3002 RMK AO2
 RAB28 SLP164 P0017 60019 T02390233 10317 20239 403170228 53004 $=
KOPF 132353Z 29006KT 10SM CLR 28/22 A3000 RMK AO2 SLP161 60063 T02780222 10300
 20250 53000=
KORL 132353Z 10008KT 10SM FEW048 BKN070 OVC095 28/22 A2999 RMK AO2 LTG DSNT SW
 RAB32E43 SLP158 P0000 60000 T02780222 10344 20278 53005=
KPAM 132356Z AUTO 28006KT 10SM FEW150 28/23 A2998 RMK AO2 SLP155 T02780231
 10304 20278 55003 $=
KPBI 132353Z 26006KT 10SM SCT028 SCT065 SCT180 BKN250 29/22 A3002 RMK AO2
 SLP163 60000 T02890222 10322 20261 53005=
KPGD 132353Z 10003KT 10SM VCTS SCT044 SCT110 27/24 A3001 RMK AO2 LTG DSNT NW-E
 RAB07E33 SLP161 P0018 60018 T02720239 10328 20256 53003=
KPIE 132353Z 33007KT 10SM CLR 28/22 A3000 RMK AO2 SLP160 T02830217 10328 20283
 53004=
KPMP 132353Z 29007KT 10SM BKN065 BKN100 29/23 A3000 RMK AO2 SLP160 60001
 T02890233 10300 20261 53004=
KPNS 132353Z 32006KT 10SM BKN120 28/24 A2998 RMK AO2 SLP153 60011 T02830239
 10311 20267 55004=
KRSW 132353Z 12006KT 10SM SCT044 SCT060 BKN080 27/23 A3000 RMK AO2 LTG DSNT N
 AND NE SLP157 60000 T02670233 10328 20267 53001=
KSFB 132353Z 10008KT 10SM BKN018 OVC095 26/23 A3000 RMK AO2 LTG DSNT SW SLP158
 T02610228 10333 20261 50008=
KSGJ 132356Z 10SM BKN044 27/24 A3000 RMK AO2 SLP158 6//// T02700240 57003 $=
KSPG 132353Z 34008KT 10SM RA CLR 30/23 A2999 RMK AO2 SLP153 P0000 60000
 T03000233 10317 20289 53006=
KSRQ 132353Z 33007KT 10SM CLR 29/22 A2999 RMK AO2 LTG DSNT E AND SE SLP154
 T02940222 10322 20289 53007=
KSUA 132347Z 22003KT 10SM SCT030 26/23 A3002 RMK WND ESTD,=
KTIX 132350Z 26002KT 7SM SCT012 SCT043 26/24 A3001=
KTLH 132353Z 20005KT 5SM -TSRA BR SCT020 BKN033CB OVC070 24/24 A3000 RMK AO2
 LTG DSNT W RAB12 TSB08 SLP157 OCNL LTGIC S-SW TS S-SW MOV S P0089 60129
 T02390239 10322 20233 53004=
KTMB 132353Z 00000KT 10SM SCT060 28/25 A3000 RMK AO2 SLP159 60001 T02780250
 10300 20256 52006=
KTPA 132353Z 32006KT 10SM FEW040 SCT110 BKN180 BKN250 30/21 A3001 RMK AO2
 SLP160 T03000211 10333 20300 53004=
KTTS 132356Z AUTO 00000KT 10SM FEW095 SCT120 BKN180 24/22 A2999 RMK AO2 DZE2255
 SLP160 60019 T02400224 10310 20234 53006 $=
KVPS 132356Z AUTO 27006KT 10SM FEW029 BKN050 BKN065 29/23 A2996 RMK AO2 SLP151
 60000 T02850227 10310 20280 55000 $=
KVQQ 132350Z 09004KT 10SM SCT012 26/26 A3000=
KVRB 132353Z 19004KT 10SM BKN080 26/24 A3001 RMK AO2 SLP162 60079 T02560239
 10350 20239 55001=
KXMR 132356Z AUTO 00000KT 10SM -DZ FEW075 FEW085 FEW120 25/23 A2998 RMK AO2
 RAE08DZB08E26DZB34E35DZB51 SLP155 P0001 60002 T02530231 10315 20243 53004 $=